Aviation Digital Data Service (ADDS)

Output produced by TAFs form (0031 UTC 24 May 2017)
found at http://aviationweather.gov/adds/tafs/
 
KMTJ 232327Z 2400/2424 34005KT P6SM FEW250 
     FM240400 14007KT P6SM FEW250 
     FM241300 VRB03KT P6SM FEW250 
     FM241600 34005KT P6SM FEW250 
     FM242000 27012G19KT P6SM FEW200